Time;durP1;ratioP1;P1;durP2;ratioP2;P2;SDS_P1;SDS_P2;PMS_P1;PMS_P2;Temp;Humidity;BMP_temperature;BMP_pressure;BME280_temperature;BME280_humidity;BME280_pressure;Samples;Min_cycle;Max_cycle;Signal;HPM_P1;HPM_P2
2022/07/28 04:00:33;;;;;;;2.38;2.28;;;11.20;99.90;;;;;;5908829;23;20261;-69
2022/07/28 04:03:00;;;;;;;2.33;2.10;;;11.20;99.90;;;;;;4985295;28;20578;-66
2022/07/28 04:05:27;;;;;;;3.00;2.90;;;11.30;99.90;;;;;;4992995;28;20271;-67
2022/07/28 04:07:53;;;;;;;2.47;2.30;;;11.20;99.90;;;;;;4990025;28;20225;-67
2022/07/28 04:10:20;;;;;;;3.05;2.75;;;11.20;99.90;;;;;;4994495;28;20236;-67
2022/07/28 04:12:48;;;;;;;2.50;2.10;;;11.30;99.90;;;;;;4972890;28;20701;-67
2022/07/28 04:15:15;;;;;;;2.40;2.20;;;11.40;99.90;;;;;;4970994;28;20513;-67
2022/07/28 04:17:43;;;;;;;2.70;2.60;;;11.50;99.90;;;;;;4969512;28;20214;-66
2022/07/28 04:20:11;;;;;;;3.45;2.20;;;11.60;99.90;;;;;;4969199;28;20265;-66
2022/07/28 04:22:38;;;;;;;2.92;2.58;;;11.70;99.90;;;;;;4972872;28;20218;-66
2022/07/28 04:25:06;;;;;;;2.58;1.95;;;11.70;99.90;;;;;;4975265;28;20206;-66
2022/07/28 04:27:35;;;;;;;1.88;1.88;;;11.80;99.90;;;;;;4971031;28;20242;-66
2022/07/28 04:30:03;;;;;;;2.35;2.25;;;11.90;99.90;;;;;;4980291;28;20293;-66
2022/07/28 04:32:30;;;;;;;1.98;1.88;;;11.90;99.90;;;;;;4977588;28;20280;-66
2022/07/28 04:34:58;;;;;;;2.28;2.17;;;12.00;99.90;;;;;;4974648;28;20213;-66
2022/07/28 04:37:26;;;;;;;2.22;2.13;;;12.00;99.90;;;;;;4979231;28;20268;-68
2022/07/28 04:39:53;;;;;;;1.95;1.95;;;12.20;99.90;;;;;;4981133;28;20264;-68
2022/07/28 04:42:20;;;;;;;2.40;2.30;;;12.30;99.90;;;;;;4969485;28;20235;-68
2022/07/28 04:44:47;;;;;;;2.60;2.40;;;12.70;99.90;;;;;;4969684;28;20529;-69
2022/07/28 04:47:14;;;;;;;1.77;1.77;;;13.00;99.90;;;;;;4967894;28;20559;-68
2022/07/28 04:49:41;;;;;;;2.13;2.03;;;13.20;99.90;;;;;;4969503;28;20475;-68
2022/07/28 04:52:09;;;;;;;2.00;1.90;;;13.70;99.90;;;;;;4976869;28;20501;-68
2022/07/28 04:54:36;;;;;;;2.13;2.00;;;14.10;99.90;;;;;;4974041;28;21010;-68
2022/07/28 04:57:04;;;;;;;2.43;2.30;;;14.40;99.90;;;;;;4977406;28;20507;-68
2022/07/28 04:59:30;;;;;;;1.80;1.67;;;14.40;99.90;;;;;;4983412;28;20466;-68
2022/07/28 05:01:57;;;;;;;2.53;2.00;;;14.30;99.90;;;;;;4980769;28;20570;-68
2022/07/28 05:04:24;;;;;;;2.07;1.97;;;14.50;99.90;;;;;;4977018;28;20473;-68
2022/07/28 05:06:51;;;;;;;6.60;2.23;;;14.60;99.90;;;;;;4972055;28;20476;-68
2022/07/28 05:09:19;;;;;;;2.13;2.03;;;14.90;99.90;;;;;;4972660;28;20495;-68
2022/07/28 05:11:46;;;;;;;5.03;2.23;;;15.10;99.90;;;;;;4977074;28;20501;-68
2022/07/28 05:14:12;;;;;;;2.50;2.30;;;14.90;99.90;;;;;;4977527;28;20475;-68
2022/07/28 05:16:39;;;;;;;1.90;1.80;;;15.00;99.90;;;;;;4972084;28;20565;-68
2022/07/28 05:19:06;;;;;;;2.53;1.77;;;15.10;99.90;;;;;;4985104;28;20469;-68
2022/07/28 05:21:33;;;;;;;2.43;2.33;;;15.10;99.90;;;;;;4964101;28;20507;-68
2022/07/28 05:24:00;;;;;;;2.47;2.27;;;15.30;99.90;;;;;;4974969;28;20557;-68
2022/07/28 05:26:29;;;;;;;2.20;2.07;;;15.50;99.90;;;;;;4982325;28;21002;-68
2022/07/28 05:28:56;;;;;;;2.07;1.87;;;15.60;99.90;;;;;;4971313;28;20496;-68
2022/07/28 05:31:23;;;;;;;5.80;2.00;;;15.70;99.90;;;;;;4975126;28;20569;-68
2022/07/28 05:33:49;;;;;;;2.80;2.27;;;15.90;99.90;;;;;;4977013;28;20481;-67
2022/07/28 05:36:16;;;;;;;2.13;1.70;;;15.80;99.90;;;;;;4971425;28;20494;-67
2022/07/28 05:38:43;;;;;;;1.70;1.70;;;15.70;99.90;;;;;;4976388;28;20465;-67
2022/07/28 05:41:09;;;;;;;1.97;1.87;;;15.60;99.90;;;;;;4978633;28;20610;-67
2022/07/28 05:43:38;;;;;;;2.30;2.20;;;15.60;99.90;;;;;;4973119;28;20573;-67
2022/07/28 05:46:05;;;;;;;2.17;2.07;;;15.50;99.90;;;;;;4974394;28;20890;-67
2022/07/28 05:48:32;;;;;;;2.17;2.17;;;15.50;99.90;;;;;;4974914;28;20488;-67
2022/07/28 05:50:59;;;;;;;1.97;1.87;;;15.40;99.90;;;;;;4989426;28;20519;-67
2022/07/28 05:53:26;;;;;;;1.90;1.90;;;15.30;99.90;;;;;;4977464;28;20502;-67
2022/07/28 05:55:53;;;;;;;1.53;1.53;;;15.40;99.90;;;;;;4990476;28;20475;-67
2022/07/28 05:58:21;;;;;;;1.97;1.80;;;15.50;99.90;;;;;;4977183;28;20504;-68
2022/07/28 06:00:49;;;;;;;3.50;1.80;;;15.40;99.90;;;;;;4965385;28;21033;-67
2022/07/28 06:03:16;;;;;;;1.90;1.80;;;15.50;99.90;;;;;;4978278;28;20497;-68
2022/07/28 06:05:43;;;;;;;4.33;2.57;;;15.60;99.90;;;;;;4971291;28;20927;-68
2022/07/28 06:08:10;;;;;;;4.43;2.80;;;15.60;99.90;;;;;;4976967;28;20489;-68
2022/07/28 06:13:18;;;;;;;5.47;3.37;;;15.40;99.90;;;;;;4978477;28;20873;-67
2022/07/28 06:15:46;;;;;;;2.17;2.07;;;15.50;99.90;;;;;;4972823;28;21801;-68
2022/07/28 06:18:15;;;;;;;2.23;2.13;;;15.60;99.90;;;;;;4971320;28;20990;-67
2022/07/28 06:20:42;;;;;;;2.20;2.00;;;15.50;99.90;;;;;;4968216;28;20546;-68
2022/07/28 06:23:08;;;;;;;2.50;2.30;;;15.50;99.90;;;;;;4972704;28;20775;-67
2022/07/28 06:25:35;;;;;;;3.80;2.27;;;15.60;99.90;;;;;;4969455;28;20473;-68
2022/07/28 06:28:02;;;;;;;2.80;2.70;;;15.70;99.90;;;;;;4967482;28;20577;-68
2022/07/28 06:30:30;;;;;;;2.30;1.80;;;16.20;99.90;;;;;;4971166;28;20597;-67
2022/07/28 06:32:57;;;;;;;2.43;2.23;;;16.50;99.90;;;;;;4974778;28;20471;-67
2022/07/28 06:35:25;;;;;;;2.10;2.00;;;16.60;99.90;;;;;;4977710;28;20478;-67
2022/07/28 06:37:53;;;;;;;3.13;1.87;;;16.90;99.90;;;;;;4976874;28;20990;-67
2022/07/28 06:40:27;;;;;;;4.40;1.90;;;17.10;99.90;;;;;;4979211;28;20477;-67
2022/07/28 06:42:57;;;;;;;2.17;1.70;;;17.50;99.90;;;;;;4970214;28;20972;-68
2022/07/28 06:45:24;;;;;;;1.93;1.83;;;17.90;99.90;;;;;;4980535;28;20466;-68
2022/07/28 06:47:53;;;;;;;1.90;1.57;;;18.10;99.90;;;;;;4979306;28;20978;-67
2022/07/28 06:50:21;;;;;;;3.10;1.77;;;18.30;99.90;;;;;;4967510;28;20472;-68
2022/07/28 06:52:52;;;;;;;1.13;1.03;;;18.60;99.90;;;;;;4977668;28;20464;-68
2022/07/28 06:55:20;;;;;;;3.47;1.40;;;19.00;99.90;;;;;;4973379;28;20564;-68
2022/07/28 06:57:47;;;;;;;1.80;1.30;;;18.80;99.90;;;;;;4980294;28;20993;-67
2022/07/28 07:00:15;;;;;;;1.53;1.33;;;18.70;99.90;;;;;;4967184;28;20501;-67
2022/07/28 07:02:43;;;;;;;1.67;1.20;;;18.50;99.90;;;;;;4983298;28;20960;-68
2022/07/28 07:05:11;;;;;;;1.73;1.30;;;18.40;99.90;;;;;;4971307;28;20958;-68
2022/07/28 07:07:39;;;;;;;1.80;1.10;;;18.60;99.90;;;;;;4977340;28;20504;-67
2022/07/28 07:10:09;;;;;;;0.90;0.90;;;18.70;99.90;;;;;;4976532;28;20981;-69
2022/07/28 07:12:36;;;;;;;2.27;1.17;;;18.70;99.90;;;;;;4968729;28;20876;-68
2022/07/28 07:15:07;;;;;;;3.70;0.97;;;18.70;99.90;;;;;;4972310;28;20946;-68
2022/07/28 07:17:37;;;;;;;1.10;1.10;;;18.60;99.90;;;;;;4977578;28;21871;-68
2022/07/28 07:20:05;;;;;;;3.67;2.87;;;18.40;99.90;;;;;;4979052;28;21031;-68
2022/07/28 07:22:33;;;;;;;1.20;1.20;;;18.30;99.90;;;;;;4979597;28;20817;-68
2022/07/28 07:25:12;;;;;;;1.03;0.80;;;18.40;99.90;;;;;;4973590;28;20887;-68
2022/07/28 07:27:39;;;;;;;1.23;0.97;;;18.70;99.90;;;;;;4976832;28;20828;-68
2022/07/28 07:30:08;;;;;;;3.20;0.90;;;18.70;99.90;;;;;;4969538;28;21011;-68
2022/07/28 07:32:36;;;;;;;1.10;0.93;;;18.60;99.90;;;;;;4966948;28;20898;-68
2022/07/28 07:35:05;;;;;;;3.20;0.90;;;18.50;99.90;;;;;;4970175;28;21055;-68
2022/07/28 07:37:32;;;;;;;1.13;1.13;;;18.60;99.90;;;;;;4967401;28;21031;-69
2022/07/28 07:40:00;;;;;;;2.43;1.40;;;18.70;99.90;;;;;;4971567;28;20818;-67
2022/07/28 07:42:35;;;;;;;1.33;1.00;;;18.80;99.90;;;;;;4978887;28;20839;-67
2022/07/28 07:45:17;;;;;;;2.40;0.80;;;19.20;99.90;;;;;;4968341;28;20472;-67
2022/07/28 07:47:57;;;;;;;2.00;1.13;;;19.30;99.90;;;;;;4962880;28;20839;-67
2022/07/28 07:50:37;;;;;;;3.13;0.80;;;19.20;99.90;;;;;;4964671;28;20796;-67
2022/07/28 07:53:05;;;;;;;1.37;1.10;;;19.50;99.90;;;;;;4961550;28;20484;-67
2022/07/28 07:55:48;;;;;;;0.97;0.70;;;19.80;99.90;;;;;;4972109;28;20493;-67
2022/07/28 07:58:48;;;;;;;1.73;1.30;;;20.00;99.90;;;;;;4966281;28;20908;-67
2022/07/28 08:01:29;;;;;;;0.83;0.83;;;20.00;99.90;;;;;;4966472;28;20525;-67
2022/07/28 08:03:59;;;;;;;2.17;1.43;;;20.00;99.90;;;;;;4968209;28;20477;-67
2022/07/28 08:06:27;;;;;;;1.90;0.93;;;20.30;99.90;;;;;;4968471;28;20479;-67
2022/07/28 08:09:14;;;;;;;1.27;1.20;;;20.20;99.90;;;;;;4966311;28;20495;-67
2022/07/28 08:11:53;;;;;;;1.63;1.10;;;20.40;99.90;;;;;;4960142;28;20499;-67
2022/07/28 08:14:24;;;;;;;1.27;1.17;;;20.60;99.90;;;;;;4965339;28;20787;-67
2022/07/28 08:16:53;;;;;;;1.07;1.07;;;20.70;99.90;;;;;;4967233;28;20468;-67
2022/07/28 08:19:22;;;;;;;1.00;0.90;;;20.90;99.90;;;;;;4961703;28;20472;-67
2022/07/28 08:21:51;;;;;;;2.17;1.17;;;21.00;99.90;;;;;;4970101;28;20959;-67
2022/07/28 08:24:19;;;;;;;1.70;0.83;;;21.10;99.90;;;;;;4967924;28;20476;-67
2022/07/28 08:26:47;;;;;;;2.47;1.00;;;21.00;99.90;;;;;;4973507;28;20489;-67
2022/07/28 08:29:14;;;;;;;1.47;1.20;;;21.10;99.90;;;;;;4969181;28;20565;-67
2022/07/28 08:31:46;;;;;;;1.00;1.00;;;20.70;99.90;;;;;;4970116;28;20494;-67
2022/07/28 08:34:20;;;;;;;1.13;0.83;;;20.70;99.90;;;;;;4971148;28;20565;-67
2022/07/28 08:36:47;;;;;;;1.23;0.90;;;20.80;99.90;;;;;;4964700;28;20535;-67
2022/07/28 08:39:20;;;;;;;4.63;1.10;;;20.60;99.90;;;;;;4973494;28;20474;-67
2022/07/28 08:41:57;;;;;;;0.80;0.70;;;20.80;99.90;;;;;;4968463;28;20485;-67
2022/07/28 08:44:30;;;;;;;1.30;1.20;;;20.70;99.90;;;;;;4971077;28;20557;-67
2022/07/28 08:47:02;;;;;;;0.83;0.80;;;20.60;99.90;;;;;;4977693;28;20473;-67
2022/07/28 08:49:30;;;;;;;1.70;1.20;;;20.60;99.90;;;;;;4969094;28;20500;-68
2022/07/28 08:52:14;;;;;;;1.43;1.33;;;20.60;99.90;;;;;;4976924;28;20524;-67
2022/07/28 08:54:44;;;;;;;1.33;0.97;;;20.70;99.90;;;;;;4970690;28;20473;-67
2022/07/28 08:57:20;;;;;;;0.90;0.90;;;20.60;99.90;;;;;;4976577;28;20508;-67
2022/07/28 08:59:51;;;;;;;1.60;1.10;;;20.80;99.90;;;;;;4964274;28;20466;-67
2022/07/28 09:02:21;;;;;;;1.10;1.10;;;21.00;99.50;;;;;;4973576;28;20498;-67
2022/07/28 09:04:49;;;;;;;1.50;0.93;;;21.20;99.80;;;;;;4964504;28;20575;-67
2022/07/28 09:07:17;;;;;;;1.43;0.90;;;21.20;98.90;;;;;;4975063;28;20948;-67
2022/07/28 09:09:47;;;;;;;1.70;1.43;;;21.20;98.80;;;;;;4968552;28;20497;-67
2022/07/28 09:12:15;;;;;;;3.83;1.23;;;21.10;99.30;;;;;;4985408;28;20488;-67
2022/07/28 09:14:45;;;;;;;1.70;0.73;;;20.90;98.90;;;;;;4978040;28;20641;-67
2022/07/28 09:17:14;;;;;;;1.27;0.80;;;20.80;99.30;;;;;;4969130;28;20539;-67
2022/07/28 09:19:47;;;;;;;0.93;0.70;;;20.70;99.60;;;;;;4968213;28;20476;-67
2022/07/28 09:22:19;;;;;;;1.40;1.17;;;20.80;99.60;;;;;;4966357;28;20494;-67
2022/07/28 09:24:46;;;;;;;2.80;1.50;;;20.80;99.90;;;;;;4965388;28;20498;-67
2022/07/28 09:27:19;;;;;;;3.60;1.30;;;20.50;99.20;;;;;;4969920;28;20596;-67
2022/07/28 09:29:48;;;;;;;2.53;1.60;;;20.30;99.90;;;;;;4972918;28;20507;-67
2022/07/28 09:32:19;;;;;;;3.77;1.33;;;20.40;99.90;;;;;;4973145;28;20496;-67
2022/07/28 09:34:49;;;;;;;1.07;0.90;;;20.40;99.90;;;;;;4975908;28;20474;-67
2022/07/28 09:37:20;;;;;;;1.10;1.10;;;20.40;99.90;;;;;;4966799;28;20599;-67
2022/07/28 09:39:49;;;;;;;1.73;1.00;;;20.20;99.90;;;;;;4969653;28;20484;-67
2022/07/28 09:42:18;;;;;;;1.13;0.80;;;20.10;99.90;;;;;;4972523;28;20496;-67
2022/07/28 09:45:07;;;;;;;0.90;0.90;;;20.10;99.90;;;;;;4975132;28;20568;-67
2022/07/28 09:47:39;;;;;;;0.90;0.90;;;20.10;99.90;;;;;;4974151;28;20966;-67
2022/07/28 09:50:09;;;;;;;1.50;1.43;;;20.30;99.90;;;;;;4983850;28;20968;-67
2022/07/28 09:52:39;;;;;;;1.23;1.20;;;20.30;99.80;;;;;;4970485;28;20488;-67
2022/07/28 09:55:08;;;;;;;0.93;0.93;;;20.30;99.90;;;;;;4974515;28;20474;-68
2022/07/28 09:57:38;;;;;;;1.27;1.17;;;20.20;99.90;;;;;;4964670;28;20473;-67
2022/07/28 10:00:07;;;;;;;1.87;1.40;;;20.20;99.90;;;;;;4975119;28;20560;-67
2022/07/28 10:02:38;;;;;;;1.30;1.30;;;20.20;99.90;;;;;;4974489;28;20503;-68
2022/07/28 10:05:10;;;;;;;1.70;1.60;;;20.30;99.90;;;;;;4974558;28;21017;-67
2022/07/28 10:07:49;;;;;;;2.13;2.13;;;20.30;99.90;;;;;;4972013;28;20484;-67
2022/07/28 10:10:20;;;;;;;2.73;1.93;;;20.50;98.90;;;;;;4967506;28;20520;-67
2022/07/28 10:12:50;;;;;;;4.60;1.30;;;20.80;98.70;;;;;;4973608;28;20474;-67
2022/07/28 10:18:08;;;;;;;1.50;0.90;;;21.10;99.50;;;;;;4969259;28;20472;-67
2022/07/28 10:20:43;;;;;;;1.60;1.50;;;21.20;98.50;;;;;;4989342;28;20509;-66
2022/07/28 10:23:16;;;;;;;1.50;1.50;;;21.10;98.40;;;;;;4961875;28;20465;-67
2022/07/28 10:25:44;;;;;;;3.47;1.80;;;20.90;98.60;;;;;;4964235;28;20528;-67
2022/07/28 10:28:16;;;;;;;1.90;1.80;;;20.80;99.10;;;;;;4971755;28;21028;-67
2022/07/28 10:30:56;;;;;;;1.40;1.40;;;20.80;99.20;;;;;;4985277;28;20571;-67
2022/07/28 10:33:30;;;;;;;1.20;1.20;;;20.80;99.60;;;;;;4971644;28;20968;-67
2022/07/28 10:36:07;;;;;;;1.50;1.40;;;20.70;98.80;;;;;;4976409;28;20552;-67
2022/07/28 10:38:43;;;;;;;1.20;1.10;;;20.60;99.40;;;;;;4973599;28;20465;-66
2022/07/28 10:41:19;;;;;;;1.10;1.10;;;20.70;99.50;;;;;;4967110;28;20655;-67
2022/07/28 10:46:37;;;;;;;1.20;1.20;;;20.90;98.60;;;;;;4971631;28;20504;-67
2022/07/28 10:49:12;;;;;;;1.20;1.20;;;20.90;98.30;;;;;;4979047;28;20468;-67
2022/07/28 10:51:46;;;;;;;3.03;1.47;;;20.90;97.80;;;;;;4968043;28;20869;-67
2022/07/28 10:54:21;;;;;;;2.90;1.20;;;20.90;98.40;;;;;;4971033;28;20473;-67
2022/07/28 10:56:51;;;;;;;2.20;1.20;;;20.50;98.60;;;;;;4972942;28;20476;-67
2022/07/28 10:59:47;;;;;;;3.97;1.83;;;20.40;99.20;;;;;;4983843;28;20973;-68
2022/07/28 11:02:45;;;;;;;8.70;8.00;;;20.40;98.80;;;;;;4972912;28;20584;-67
2022/07/28 11:05:32;;;;;;;2.10;1.87;;;20.40;98.50;;;;;;4966727;28;20569;-67
2022/07/28 11:08:02;;;;;;;2.50;1.33;;;20.50;98.80;;;;;;4968257;28;20479;-67
2022/07/28 11:10:30;;;;;;;2.10;2.10;;;20.70;99.00;;;;;;4971946;28;20497;-67
2022/07/28 11:12:59;;;;;;;1.10;1.00;;;20.90;98.30;;;;;;4968359;28;20476;-67
2022/07/28 11:15:33;;;;;;;2.10;2.10;;;20.90;98.00;;;;;;4965973;28;20474;-67
2022/07/28 11:18:02;;;;;;;4.53;4.30;;;20.90;98.50;;;;;;4972020;28;21008;-67
2022/07/28 11:21:07;;;;;;;4.90;4.23;;;20.70;98.80;;;;;;4973974;28;22129;-67
2022/07/28 11:23:44;;;;;;;1.40;1.40;;;20.40;99.90;;;;;;4983068;28;20574;-67
2022/07/28 11:26:33;;;;;;;1.73;1.60;;;20.50;99.60;;;;;;4975001;28;20479;-67
2022/07/28 11:29:22;;;;;;;1.30;1.23;;;20.50;99.00;;;;;;4976752;28;20469;-67
2022/07/28 11:31:56;;;;;;;2.87;1.93;;;20.60;99.10;;;;;;4975052;28;20502;-67
2022/07/28 11:34:25;;;;;;;1.30;1.30;;;20.60;99.20;;;;;;4979085;28;20463;-67
2022/07/28 11:37:04;;;;;;;1.40;1.40;;;20.70;99.20;;;;;;4979503;28;20551;-67
2022/07/28 11:39:33;;;;;;;1.90;1.50;;;20.70;98.80;;;;;;4982055;28;20463;-68
2022/07/28 11:42:20;;;;;;;1.17;1.07;;;20.70;98.30;;;;;;4971743;28;21016;-68
2022/07/28 11:44:47;;;;;;;1.43;1.33;;;20.80;99.30;;;;;;4972056;28;20461;-68
2022/07/28 11:47:18;;;;;;;3.57;1.83;;;20.70;98.90;;;;;;4972252;28;20970;-68
2022/07/28 11:49:45;;;;;;;2.40;2.30;;;20.70;98.20;;;;;;4971480;28;20596;-68
2022/07/28 11:52:18;;;;;;;5.37;2.40;;;20.40;98.20;;;;;;4970756;28;20491;-67
2022/07/28 11:54:52;;;;;;;1.87;1.43;;;20.30;98.00;;;;;;4972312;28;20471;-67
2022/07/28 11:57:22;;;;;;;1.60;1.60;;;20.20;98.30;;;;;;4952703;28;20480;-68
2022/07/28 11:59:53;;;;;;;1.70;1.70;;;20.30;98.40;;;;;;4952601;28;20476;-68
2022/07/28 12:02:23;;;;;;;1.23;1.23;;;20.50;98.40;;;;;;4954991;28;20566;-67
2022/07/28 12:05:12;;;;;;;1.60;1.50;;;20.70;98.30;;;;;;4974167;28;20465;-67
2022/07/28 12:07:42;;;;;;;1.30;1.30;;;20.90;98.70;;;;;;4975626;28;20996;-67
2022/07/28 12:10:34;;;;;;;1.70;1.70;;;21.20;97.80;;;;;;4971618;28;20600;-67
2022/07/28 12:13:03;;;;;;;2.40;2.20;;;21.50;98.30;;;;;;4976318;28;20551;-66
2022/07/28 12:15:30;;;;;;;1.90;1.60;;;21.60;97.50;;;;;;4981102;28;21335;-66
2022/07/28 12:17:58;;;;;;;1.20;1.20;;;21.60;97.50;;;;;;4977415;28;20465;-66
2022/07/28 12:20:30;;;;;;;1.60;1.30;;;21.50;97.30;;;;;;4969453;28;20504;-66
2022/07/28 12:23:00;;;;;;;1.27;1.27;;;21.50;96.90;;;;;;4970189;28;20476;-66
2022/07/28 12:25:29;;;;;;;5.00;2.30;;;21.40;97.30;;;;;;4978434;28;20527;-66
2022/07/28 12:27:57;;;;;;;1.27;1.27;;;21.30;97.60;;;;;;4982290;28;20476;-66
2022/07/28 12:30:25;;;;;;;1.63;1.50;;;21.20;97.30;;;;;;4986257;28;20911;-68
2022/07/28 12:32:53;;;;;;;1.27;1.27;;;21.30;97.30;;;;;;4970173;28;20472;-66
2022/07/28 12:35:21;;;;;;;2.20;2.10;;;21.20;97.80;;;;;;4973423;28;20941;-66
2022/07/28 12:37:49;;;;;;;1.73;1.33;;;21.20;97.20;;;;;;4964932;28;20475;-66
2022/07/28 12:40:17;;;;;;;1.57;1.57;;;21.20;97.10;;;;;;4970994;28;20965;-66
2022/07/28 12:42:48;;;;;;;1.53;1.53;;;20.90;97.00;;;;;;4969501;28;20464;-67
2022/07/28 12:45:15;;;;;;;1.60;1.50;;;20.90;97.70;;;;;;4970713;28;20467;-66
2022/07/28 12:47:42;;;;;;;1.40;1.40;;;20.90;97.80;;;;;;4969876;28;20469;-66
2022/07/28 12:50:12;;;;;;;1.30;1.20;;;20.80;97.30;;;;;;4978326;28;20822;-66
2022/07/28 12:52:40;;;;;;;1.77;1.67;;;20.80;97.50;;;;;;4968836;28;20475;-66
2022/07/28 12:55:24;;;;;;;1.67;1.63;;;20.70;97.70;;;;;;4968354;28;20491;-66
2022/07/28 12:57:53;;;;;;;2.17;2.07;;;20.60;97.40;;;;;;4978037;28;20554;-66
2022/07/28 13:00:23;;;;;;;1.60;1.60;;;20.80;97.50;;;;;;4976079;28;20957;-67
2022/07/28 13:02:51;;;;;;;1.50;1.50;;;20.80;97.00;;;;;;4975442;28;20992;-67
2022/07/28 13:06:01;;;;;;;1.90;1.80;;;20.90;97.10;;;;;;4967824;28;20509;-67
2022/07/28 13:08:21;;;;;;;1.87;1.73;;;20.90;97.60;;;;;;4971297;28;20827;-67
2022/07/28 13:10:49;;;;;;;3.03;1.37;;;20.90;97.00;;;;;;4975415;28;20496;-67
2022/07/28 13:13:17;;;;;;;1.43;1.43;;;21.10;97.10;;;;;;4976730;28;20473;-67
2022/07/28 13:15:44;;;;;;;1.70;1.60;;;21.10;96.30;;;;;;4984653;28;20550;-67
2022/07/28 13:18:11;;;;;;;2.47;1.57;;;21.20;96.30;;;;;;4979326;28;20473;-67
2022/07/28 13:20:48;;;;;;;1.40;1.40;;;21.40;96.30;;;;;;4979471;28;20567;-66
2022/07/28 13:23:15;;;;;;;1.40;1.40;;;21.50;96.50;;;;;;4980434;28;20561;-66
2022/07/28 13:25:42;;;;;;;1.80;1.70;;;21.60;96.10;;;;;;4972888;28;20557;-66
2022/07/28 13:28:23;;;;;;;2.37;1.63;;;21.70;95.90;;;;;;4976516;28;20476;-66
2022/07/28 13:30:50;;;;;;;1.50;1.50;;;21.50;95.40;;;;;;4981739;28;20488;-67
2022/07/28 13:33:17;;;;;;;2.63;1.50;;;21.50;96.00;;;;;;4972070;28;20803;-67
2022/07/28 13:35:44;;;;;;;1.90;1.80;;;21.60;95.60;;;;;;4971674;28;20472;-67
2022/07/28 13:38:10;;;;;;;1.47;1.47;;;21.60;95.30;;;;;;4980514;28;20519;-67
2022/07/28 13:40:37;;;;;;;1.47;1.47;;;21.40;96.10;;;;;;4974929;28;20562;-67
2022/07/28 13:43:06;;;;;;;1.47;1.43;;;21.50;96.90;;;;;;4971499;28;20491;-67
2022/07/28 13:45:35;;;;;;;3.50;1.70;;;21.60;96.50;;;;;;4974392;28;20469;-67
2022/07/28 13:48:01;;;;;;;1.70;1.60;;;21.70;96.40;;;;;;4979439;28;20502;-67
2022/07/28 13:50:28;;;;;;;3.43;1.47;;;21.70;95.70;;;;;;4979729;28;20537;-67
2022/07/28 13:52:55;;;;;;;1.60;1.60;;;21.70;95.70;;;;;;4976833;28;20522;-67
2022/07/28 13:55:22;;;;;;;1.83;1.50;;;21.70;96.10;;;;;;4979792;28;20475;-67
2022/07/28 13:57:49;;;;;;;2.00;1.80;;;21.80;95.70;;;;;;4979597;28;20493;-67
2022/07/28 14:00:16;;;;;;;3.00;1.70;;;21.80;95.90;;;;;;4974627;28;20552;-67
2022/07/28 14:02:45;;;;;;;1.83;1.77;;;21.80;96.00;;;;;;4967312;28;20851;-67
2022/07/28 14:05:13;;;;;;;1.20;1.20;;;21.90;95.60;;;;;;4968111;28;20985;-67
2022/07/28 14:07:39;;;;;;;3.13;1.70;;;21.90;95.60;;;;;;4981227;28;20516;-67
2022/07/28 14:10:07;;;;;;;1.97;1.97;;;21.90;95.20;;;;;;4973160;28;20476;-67
2022/07/28 14:12:34;;;;;;;1.30;1.30;;;21.90;95.20;;;;;;4972676;28;20496;-67
2022/07/28 14:15:01;;;;;;;1.43;1.33;;;21.90;94.80;;;;;;4976383;28;20555;-67
2022/07/28 14:17:29;;;;;;;2.33;2.13;;;22.10;94.60;;;;;;4970587;28;20477;-67
2022/07/28 14:19:57;;;;;;;1.47;1.40;;;22.10;94.80;;;;;;4970271;28;20472;-67
2022/07/28 14:22:24;;;;;;;1.10;1.10;;;22.20;95.00;;;;;;4979773;28;20493;-67
2022/07/28 14:24:51;;;;;;;1.30;1.27;;;22.10;94.90;;;;;;4979608;28;20515;-67
2022/07/28 14:27:17;;;;;;;1.20;1.20;;;22.00;94.60;;;;;;4976296;28;20520;-67
2022/07/28 14:29:44;;;;;;;1.30;1.30;;;22.00;95.00;;;;;;4979618;28;20456;-67
2022/07/28 14:32:11;;;;;;;1.13;1.13;;;21.90;94.60;;;;;;4969080;28;20500;-66
2022/07/28 14:34:37;;;;;;;1.17;1.17;;;21.80;95.00;;;;;;4971521;28;20993;-67
2022/07/28 14:37:05;;;;;;;1.83;1.40;;;21.80;95.10;;;;;;4984711;28;20658;-67
2022/07/28 14:39:32;;;;;;;1.93;1.50;;;21.90;94.90;;;;;;4973777;28;20480;-67
2022/07/28 14:41:59;;;;;;;1.63;1.63;;;21.90;94.70;;;;;;4977269;28;20611;-67
2022/07/28 14:44:26;;;;;;;1.87;1.80;;;21.80;94.60;;;;;;4988349;28;20929;-67
2022/07/28 14:46:52;;;;;;;2.17;1.40;;;21.90;94.30;;;;;;4971767;28;21028;-67
2022/07/28 14:49:19;;;;;;;1.20;1.20;;;21.80;94.70;;;;;;4981439;28;20472;-67
2022/07/28 14:51:46;;;;;;;2.07;1.97;;;21.90;94.10;;;;;;4985469;28;20501;-67
2022/07/28 14:54:14;;;;;;;1.10;1.10;;;22.10;94.50;;;;;;4975472;28;20469;-66
2022/07/28 14:56:40;;;;;;;1.63;1.53;;;22.10;94.20;;;;;;4971296;28;21218;-67
2022/07/28 14:59:07;;;;;;;1.40;1.40;;;22.10;94.30;;;;;;4979587;28;20472;-66
2022/07/28 15:01:34;;;;;;;1.43;1.30;;;22.20;94.30;;;;;;4971529;28;20905;-66
2022/07/28 15:04:01;;;;;;;2.83;1.17;;;22.30;95.00;;;;;;4966479;28;20466;-66
2022/07/28 15:06:28;;;;;;;1.63;1.20;;;22.30;95.10;;;;;;4987624;28;20460;-66
2022/07/28 15:08:56;;;;;;;1.83;1.83;;;22.50;95.20;;;;;;4973068;28;20463;-67
2022/07/28 15:11:24;;;;;;;1.53;1.40;;;22.60;94.30;;;;;;4972130;28;20498;-66
2022/07/28 15:13:51;;;;;;;2.40;1.30;;;22.70;94.10;;;;;;4967289;28;20479;-67
2022/07/28 15:16:17;;;;;;;6.57;1.93;;;22.60;93.50;;;;;;4985762;28;20464;-66
2022/07/28 15:18:44;;;;;;;1.00;1.00;;;22.50;93.80;;;;;;4975372;28;20457;-66
2022/07/28 15:21:14;;;;;;;1.70;1.43;;;22.50;93.40;;;;;;4987795;28;20472;-67
2022/07/28 15:23:41;;;;;;;1.90;1.10;;;22.40;93.50;;;;;;4970155;28;20470;-67
2022/07/28 15:26:08;;;;;;;1.17;1.07;;;22.50;93.70;;;;;;4972538;28;20488;-68
2022/07/28 15:28:36;;;;;;;1.00;1.00;;;22.50;93.50;;;;;;4971714;28;20481;-67
2022/07/28 15:31:03;;;;;;;1.90;1.13;;;22.40;93.00;;;;;;4972310;28;20516;-67
2022/07/28 15:33:29;;;;;;;2.17;1.20;;;22.20;93.30;;;;;;4968423;28;20559;-66
2022/07/28 15:35:59;;;;;;;1.63;1.10;;;22.10;93.80;;;;;;4977120;28;20464;-66
2022/07/28 15:38:26;;;;;;;1.17;1.13;;;22.30;93.70;;;;;;4974752;28;20477;-67
2022/07/28 15:40:53;;;;;;;1.93;1.83;;;22.40;93.40;;;;;;4977159;28;20477;-66
2022/07/28 15:43:20;;;;;;;1.00;1.00;;;22.40;93.10;;;;;;4970933;28;20476;-66
2022/07/28 15:45:48;;;;;;;1.30;1.20;;;22.30;92.80;;;;;;4979773;28;20495;-66
2022/07/28 15:48:14;;;;;;;4.40;1.13;;;22.20;92.90;;;;;;4964557;28;20466;-66
2022/07/28 15:50:44;;;;;;;0.97;0.97;;;22.00;92.70;;;;;;4990512;28;20493;-66
2022/07/28 15:53:10;;;;;;;1.73;1.73;;;22.00;92.90;;;;;;4973171;28;20523;-66
2022/07/28 15:55:37;;;;;;;1.07;1.07;;;22.00;92.60;;;;;;4980929;28;20480;-66
2022/07/28 15:58:04;;;;;;;1.10;1.10;;;22.00;93.00;;;;;;4970291;28;20476;-66
2022/07/28 16:00:32;;;;;;;1.73;0.97;;;22.10;93.10;;;;;;4980690;28;20861;-67
2022/07/28 16:03:00;;;;;;;1.00;1.00;;;22.20;93.00;;;;;;4981019;28;20953;-67
2022/07/28 16:05:27;;;;;;;3.87;1.27;;;22.20;92.60;;;;;;4982629;28;20460;-67
2022/07/28 16:07:55;;;;;;;0.90;0.90;;;22.30;92.90;;;;;;4983626;28;20814;-67
2022/07/28 16:10:22;;;;;;;2.40;1.20;;;22.40;92.80;;;;;;4980662;28;20908;-67
2022/07/28 16:12:49;;;;;;;0.83;0.83;;;22.30;92.60;;;;;;4978715;28;20486;-67
2022/07/28 16:15:16;;;;;;;1.17;1.07;;;22.30;92.50;;;;;;4981737;28;20464;-67
2022/07/28 16:17:42;;;;;;;1.37;1.03;;;22.30;93.10;;;;;;4984293;28;20473;-67
2022/07/28 16:20:11;;;;;;;1.90;0.90;;;22.40;92.80;;;;;;4969947;28;20473;-67
2022/07/28 16:22:39;;;;;;;0.97;0.97;;;22.30;92.60;;;;;;4973684;28;20484;-67
2022/07/28 16:25:09;;;;;;;1.53;1.27;;;22.40;92.30;;;;;;4975253;28;20514;-67
2022/07/28 16:27:36;;;;;;;1.00;0.93;;;22.50;92.50;;;;;;4970414;28;20473;-67
2022/07/28 16:30:03;;;;;;;1.80;1.20;;;22.60;92.10;;;;;;4975096;28;20561;-67
2022/07/28 16:32:30;;;;;;;1.10;1.10;;;22.60;92.70;;;;;;4975256;28;20548;-67
2022/07/28 16:34:56;;;;;;;2.67;1.30;;;22.60;91.90;;;;;;4978831;28;20503;-67
2022/07/28 16:37:25;;;;;;;1.13;1.07;;;22.50;91.90;;;;;;4970776;28;20469;-67
2022/07/28 16:39:52;;;;;;;1.37;1.13;;;22.40;91.90;;;;;;4968226;28;20508;-67
2022/07/28 16:42:19;;;;;;;0.80;0.80;;;22.30;91.90;;;;;;4975731;28;20489;-67
2022/07/28 16:44:46;;;;;;;1.13;1.13;;;22.20;92.00;;;;;;4964679;28;20477;-67
2022/07/28 16:47:12;;;;;;;7.53;1.30;;;22.30;92.50;;;;;;4977676;28;20981;-67
2022/07/28 16:49:39;;;;;;;1.07;1.00;;;22.20;99.90;;;;;;4975630;28;20496;-68
2022/07/28 16:52:06;;;;;;;1.33;1.23;;;22.00;94.40;;;;;;4985394;28;20525;-68
2022/07/28 16:54:34;;;;;;;1.40;1.30;;;21.90;93.40;;;;;;4970772;28;20495;-69
2022/07/28 16:57:01;;;;;;;1.17;1.07;;;21.90;93.70;;;;;;4983138;28;20845;-68
2022/07/28 16:59:27;;;;;;;1.33;1.23;;;21.90;93.30;;;;;;4970597;28;20479;-69
2022/07/28 17:01:54;;;;;;;1.27;1.17;;;21.90;92.90;;;;;;5018848;23;20509;-69
2022/07/28 17:04:21;;;;;;;1.47;1.37;;;21.90;92.60;;;;;;5009160;28;20511;-69
2022/07/28 17:06:47;;;;;;;1.13;1.03;;;21.80;92.60;;;;;;5011990;28;20462;-69
2022/07/28 17:09:14;;;;;;;0.90;0.90;;;21.70;92.70;;;;;;5007020;28;20458;-69